Potomac, IL (61865)

11:52 PM CDT on August 26, 2016 (GMT -0500)
Pilot Twp | | Change Station

Elev 738 ft 40.26 °N, 87.88 °W | Updated 7 minutes ago

Rain
Rain
70.4 °F
Feels Like 70.4 °F
N
0.0
Wind Variable Wind from SE
Gusts 3.0 mph

Today
High -- | Low -- °F
--% Chance of Precip.
Yesterday
High -- | Low -- °F
Precip. -- in
Pressure 30.06 in
Visibility 7.0 miles
Clouds Clear
Dew Point 69 °F
Humidity 94%
Rainfall 0.20 in
Snow Depth Not available.
6:13 AM 7:31 PM
Waning Crescent, 28% visible
METAR KDNV 270435Z AUTO 00000KT 7SM RA CLR 21/21 A3006 RMK AO2 T02100210
Pressure 30.06 in
Visibility 7.0 miles
Clouds Clear
Dew Point 69 °F
Humidity 94%
Rainfall 0.20 in
Snow Depth Not available.
6:13 AM 7:31 PM
Waning Crescent, 28% visible
METAR KDNV 270435Z AUTO 00000KT 7SM RA CLR 21/21 A3006 RMK AO2 T02100210

10-Day Weather Forecast

Almanac

Astronomy

Aug. 26, 2016 Rise Set
Actual Time
Civil Twilight
Nautical Twilight
Astronomical Twilight
Moon
Length of Visible Light
Length of Day
Tomorrow will be .
, % of the Moon is Illuminated

Today's Extremes

State Highs State Lows

Community

WunderPhotos

Upload Photos

1,935,299 photos uploaded!

WunderBlog® & News

Nearby

Air Quality

  Air Quality AQ Index Pollutant
Not available.

Snow Depth

Station Depth Elevation

Earthquake Activity

City Distance Mag. Time & Date
Minimum magnitude displayed is 2.5.

Coastal Water Temperatures

Place Temperature

Stations

Nearby Weather Stations

Station Location Temp. Windchill Dew Point Humidity Wind Precip. Elev Updated Type
                   

Watches & Warnings

There are currently no watches in effect.